sensor_id;sensor_type;location;lat;lon;timestamp;P1;durP1;ratioP1;P2;durP2;ratioP2
18499;SDS011;9379;52.134;11.576;2022-12-08T00:01:19;6.40;;;5.05;;
18499;SDS011;9379;52.134;11.576;2022-12-08T00:03:48;4.97;;;4.30;;
18499;SDS011;9379;52.134;11.576;2022-12-08T00:06:20;5.13;;;4.63;;
18499;SDS011;9379;52.134;11.576;2022-12-08T00:09:09;5.05;;;3.95;;
18499;SDS011;9379;52.134;11.576;2022-12-08T00:11:48;7.63;;;4.60;;
18499;SDS011;9379;52.134;11.576;2022-12-08T00:14:19;6.00;;;3.67;;
18499;SDS011;9379;52.134;11.576;2022-12-08T00:16:50;5.80;;;5.28;;
18499;SDS011;9379;52.134;11.576;2022-12-08T00:19:16;8.23;;;6.03;;
18499;SDS011;9379;52.134;11.576;2022-12-08T00:21:43;6.25;;;5.53;;
18499;SDS011;9379;52.134;11.576;2022-12-08T00:24:10;6.80;;;5.05;;
18499;SDS011;9379;52.134;11.576;2022-12-08T00:26:37;5.82;;;5.15;;
18499;SDS011;9379;52.134;11.576;2022-12-08T00:29:04;4.78;;;4.28;;
18499;SDS011;9379;52.134;11.576;2022-12-08T00:31:32;4.38;;;3.90;;
18499;SDS011;9379;52.134;11.576;2022-12-08T00:34:00;5.00;;;4.50;;
18499;SDS011;9379;52.134;11.576;2022-12-08T00:36:27;4.50;;;4.10;;
18499;SDS011;9379;52.134;11.576;2022-12-08T00:38:54;4.03;;;3.70;;
18499;SDS011;9379;52.134;11.576;2022-12-08T00:41:22;6.45;;;5.45;;
18499;SDS011;9379;52.134;11.576;2022-12-08T00:44:04;8.10;;;4.70;;
18499;SDS011;9379;52.134;11.576;2022-12-08T00:46:31;6.65;;;5.95;;
18499;SDS011;9379;52.134;11.576;2022-12-08T00:48:59;4.70;;;4.30;;
18499;SDS011;9379;52.134;11.576;2022-12-08T00:51:26;4.63;;;4.05;;
18499;SDS011;9379;52.134;11.576;2022-12-08T00:53:53;3.63;;;3.33;;
18499;SDS011;9379;52.134;11.576;2022-12-08T00:56:20;4.75;;;4.25;;
18499;SDS011;9379;52.134;11.576;2022-12-08T00:58:47;4.35;;;3.47;;
18499;SDS011;9379;52.134;11.576;2022-12-08T01:01:14;4.72;;;4.18;;
18499;SDS011;9379;52.134;11.576;2022-12-08T01:03:41;6.68;;;5.15;;
18499;SDS011;9379;52.134;11.576;2022-12-08T01:06:10;4.43;;;4.03;;
18499;SDS011;9379;52.134;11.576;2022-12-08T01:08:37;4.82;;;4.40;;
18499;SDS011;9379;52.134;11.576;2022-12-08T01:11:05;7.47;;;4.97;;
18499;SDS011;9379;52.134;11.576;2022-12-08T01:13:34;5.80;;;3.83;;
18499;SDS011;9379;52.134;11.576;2022-12-08T01:16:00;4.43;;;4.03;;
18499;SDS011;9379;52.134;11.576;2022-12-08T01:18:28;7.05;;;3.90;;
18499;SDS011;9379;52.134;11.576;2022-12-08T01:20:55;6.07;;;5.40;;
18499;SDS011;9379;52.134;11.576;2022-12-08T01:23:29;4.90;;;4.40;;
18499;SDS011;9379;52.134;11.576;2022-12-08T01:25:59;5.28;;;4.40;;
18499;SDS011;9379;52.134;11.576;2022-12-08T01:28:27;4.68;;;3.72;;
18499;SDS011;9379;52.134;11.576;2022-12-08T01:30:54;4.88;;;4.43;;
18499;SDS011;9379;52.134;11.576;2022-12-08T01:33:21;6.65;;;4.65;;
18499;SDS011;9379;52.134;11.576;2022-12-08T01:35:48;9.88;;;4.65;;
18499;SDS011;9379;52.134;11.576;2022-12-08T01:38:15;5.43;;;4.93;;
18499;SDS011;9379;52.134;11.576;2022-12-08T01:40:43;5.28;;;4.78;;
18499;SDS011;9379;52.134;11.576;2022-12-08T01:43:11;7.55;;;4.57;;
18499;SDS011;9379;52.134;11.576;2022-12-08T01:45:41;6.32;;;4.90;;
18499;SDS011;9379;52.134;11.576;2022-12-08T01:48:08;5.63;;;4.80;;
18499;SDS011;9379;52.134;11.576;2022-12-08T01:50:42;6.25;;;4.60;;
18499;SDS011;9379;52.134;11.576;2022-12-08T01:53:11;5.35;;;4.57;;
18499;SDS011;9379;52.134;11.576;2022-12-08T01:55:45;4.15;;;3.75;;
18499;SDS011;9379;52.134;11.576;2022-12-08T01:58:51;5.70;;;4.40;;
18499;SDS011;9379;52.134;11.576;2022-12-08T02:01:20;5.38;;;4.78;;
18499;SDS011;9379;52.134;11.576;2022-12-08T02:03:49;7.55;;;5.38;;
18499;SDS011;9379;52.134;11.576;2022-12-08T02:06:20;11.45;;;4.97;;
18499;SDS011;9379;52.134;11.576;2022-12-08T02:08:47;5.90;;;4.85;;
18499;SDS011;9379;52.134;11.576;2022-12-08T02:11:16;5.38;;;4.80;;
18499;SDS011;9379;52.134;11.576;2022-12-08T02:13:43;6.78;;;4.10;;
18499;SDS011;9379;52.134;11.576;2022-12-08T02:16:15;5.10;;;4.25;;
18499;SDS011;9379;52.134;11.576;2022-12-08T02:18:56;10.73;;;5.18;;
18499;SDS011;9379;52.134;11.576;2022-12-08T02:21:32;5.55;;;4.90;;
18499;SDS011;9379;52.134;11.576;2022-12-08T02:24:08;5.10;;;3.97;;
18499;SDS011;9379;52.134;11.576;2022-12-08T02:26:50;7.78;;;4.15;;
18499;SDS011;9379;52.134;11.576;2022-12-08T02:35:43;3.90;;;3.50;;
18499;SDS011;9379;52.134;11.576;2022-12-08T02:38:18;3.80;;;3.47;;
18499;SDS011;9379;52.134;11.576;2022-12-08T02:40:56;18.17;;;5.55;;
18499;SDS011;9379;52.134;11.576;2022-12-08T02:43:31;3.85;;;3.50;;
18499;SDS011;9379;52.134;11.576;2022-12-08T02:46:04;4.03;;;3.65;;
18499;SDS011;9379;52.134;11.576;2022-12-08T02:48:34;6.05;;;4.03;;
18499;SDS011;9379;52.134;11.576;2022-12-08T02:51:03;4.50;;;4.10;;
18499;SDS011;9379;52.134;11.576;2022-12-08T02:53:31;3.45;;;3.22;;
18499;SDS011;9379;52.134;11.576;2022-12-08T02:56:01;4.47;;;4.07;;
18499;SDS011;9379;52.134;11.576;2022-12-08T02:58:49;5.18;;;4.38;;
18499;SDS011;9379;52.134;11.576;2022-12-08T03:01:32;5.53;;;4.00;;
18499;SDS011;9379;52.134;11.576;2022-12-08T03:04:13;3.88;;;3.58;;
18499;SDS011;9379;52.134;11.576;2022-12-08T03:06:49;4.32;;;3.92;;
18499;SDS011;9379;52.134;11.576;2022-12-08T03:09:23;8.25;;;5.03;;
18499;SDS011;9379;52.134;11.576;2022-12-08T03:12:01;6.28;;;4.57;;
18499;SDS011;9379;52.134;11.576;2022-12-08T03:14:32;5.70;;;4.28;;
18499;SDS011;9379;52.134;11.576;2022-12-08T03:17:01;7.40;;;4.45;;
18499;SDS011;9379;52.134;11.576;2022-12-08T03:19:29;5.75;;;5.20;;
18499;SDS011;9379;52.134;11.576;2022-12-08T03:22:01;8.55;;;4.18;;
18499;SDS011;9379;52.134;11.576;2022-12-08T03:24:32;5.03;;;4.57;;
18499;SDS011;9379;52.134;11.576;2022-12-08T03:27:02;5.50;;;4.82;;
18499;SDS011;9379;52.134;11.576;2022-12-08T03:29:32;4.88;;;4.22;;
18499;SDS011;9379;52.134;11.576;2022-12-08T03:32:00;8.38;;;4.65;;
18499;SDS011;9379;52.134;11.576;2022-12-08T03:34:34;6.85;;;5.43;;
18499;SDS011;9379;52.134;11.576;2022-12-08T03:37:03;5.75;;;5.32;;
18499;SDS011;9379;52.134;11.576;2022-12-08T03:39:30;5.40;;;4.45;;
18499;SDS011;9379;52.134;11.576;2022-12-08T03:41:57;6.22;;;5.63;;
18499;SDS011;9379;52.134;11.576;2022-12-08T03:44:23;6.85;;;5.38;;
18499;SDS011;9379;52.134;11.576;2022-12-08T03:46:50;4.20;;;3.80;;
18499;SDS011;9379;52.134;11.576;2022-12-08T03:49:17;6.60;;;5.88;;
18499;SDS011;9379;52.134;11.576;2022-12-08T03:51:44;6.40;;;5.07;;
18499;SDS011;9379;52.134;11.576;2022-12-08T03:54:12;8.82;;;4.97;;
18499;SDS011;9379;52.134;11.576;2022-12-08T03:56:39;5.13;;;4.63;;
18499;SDS011;9379;52.134;11.576;2022-12-08T03:59:06;6.82;;;5.85;;
18499;SDS011;9379;52.134;11.576;2022-12-08T04:01:33;5.82;;;5.25;;
18499;SDS011;9379;52.134;11.576;2022-12-08T04:04:00;6.75;;;6.05;;
18499;SDS011;9379;52.134;11.576;2022-12-08T04:06:27;8.35;;;5.63;;
18499;SDS011;9379;52.134;11.576;2022-12-08T04:08:54;5.78;;;5.28;;
18499;SDS011;9379;52.134;11.576;2022-12-08T04:11:22;7.45;;;6.45;;
18499;SDS011;9379;52.134;11.576;2022-12-08T04:13:49;8.35;;;6.32;;
18499;SDS011;9379;52.134;11.576;2022-12-08T04:16:16;6.50;;;5.95;;
18499;SDS011;9379;52.134;11.576;2022-12-08T04:18:44;6.20;;;5.60;;
18499;SDS011;9379;52.134;11.576;2022-12-08T04:21:11;7.05;;;6.10;;
18499;SDS011;9379;52.134;11.576;2022-12-08T04:23:39;8.43;;;6.38;;
18499;SDS011;9379;52.134;11.576;2022-12-08T04:26:06;5.72;;;4.80;;
18499;SDS011;9379;52.134;11.576;2022-12-08T04:28:34;5.85;;;5.30;;
18499;SDS011;9379;52.134;11.576;2022-12-08T04:31:01;8.63;;;6.32;;
18499;SDS011;9379;52.134;11.576;2022-12-08T04:33:28;6.80;;;5.60;;
18499;SDS011;9379;52.134;11.576;2022-12-08T04:35:55;5.32;;;4.82;;
18499;SDS011;9379;52.134;11.576;2022-12-08T04:38:22;6.85;;;5.57;;
18499;SDS011;9379;52.134;11.576;2022-12-08T04:40:49;8.48;;;5.45;;
18499;SDS011;9379;52.134;11.576;2022-12-08T04:43:16;6.85;;;6.03;;
18499;SDS011;9379;52.134;11.576;2022-12-08T04:45:44;6.32;;;5.60;;
18499;SDS011;9379;52.134;11.576;2022-12-08T04:48:12;6.63;;;5.97;;
18499;SDS011;9379;52.134;11.576;2022-12-08T04:50:39;8.82;;;6.82;;
18499;SDS011;9379;52.134;11.576;2022-12-08T04:53:08;6.40;;;5.32;;
18499;SDS011;9379;52.134;11.576;2022-12-08T04:55:37;9.13;;;7.55;;
18499;SDS011;9379;52.134;11.576;2022-12-08T04:58:05;7.03;;;6.38;;
18499;SDS011;9379;52.134;11.576;2022-12-08T05:00:32;7.88;;;6.70;;
18499;SDS011;9379;52.134;11.576;2022-12-08T05:03:00;7.80;;;6.38;;
18499;SDS011;9379;52.134;11.576;2022-12-08T05:05:27;8.90;;;6.68;;
18499;SDS011;9379;52.134;11.576;2022-12-08T05:07:54;11.68;;;7.72;;
18499;SDS011;9379;52.134;11.576;2022-12-08T05:10:21;7.63;;;6.32;;
18499;SDS011;9379;52.134;11.576;2022-12-08T05:12:48;8.05;;;6.57;;
18499;SDS011;9379;52.134;11.576;2022-12-08T05:15:15;6.70;;;5.95;;
18499;SDS011;9379;52.134;11.576;2022-12-08T05:17:41;6.18;;;5.25;;
18499;SDS011;9379;52.134;11.576;2022-12-08T05:20:10;10.73;;;7.07;;
18499;SDS011;9379;52.134;11.576;2022-12-08T05:22:37;6.38;;;5.72;;
18499;SDS011;9379;52.134;11.576;2022-12-08T05:25:04;9.88;;;5.97;;
18499;SDS011;9379;52.134;11.576;2022-12-08T05:27:31;6.45;;;5.80;;
18499;SDS011;9379;52.134;11.576;2022-12-08T05:29:58;7.35;;;5.25;;
18499;SDS011;9379;52.134;11.576;2022-12-08T05:32:25;5.75;;;5.03;;
18499;SDS011;9379;52.134;11.576;2022-12-08T05:34:52;6.78;;;6.15;;
18499;SDS011;9379;52.134;11.576;2022-12-08T05:37:20;8.02;;;6.93;;
18499;SDS011;9379;52.134;11.576;2022-12-08T05:39:47;11.25;;;6.45;;
18499;SDS011;9379;52.134;11.576;2022-12-08T05:42:14;6.63;;;6.00;;
18499;SDS011;9379;52.134;11.576;2022-12-08T05:44:40;5.93;;;5.38;;
18499;SDS011;9379;52.134;11.576;2022-12-08T05:47:07;14.82;;;6.80;;
18499;SDS011;9379;52.134;11.576;2022-12-08T05:49:34;9.73;;;6.05;;
18499;SDS011;9379;52.134;11.576;2022-12-08T05:52:01;7.82;;;6.65;;
18499;SDS011;9379;52.134;11.576;2022-12-08T05:54:29;6.82;;;6.18;;
18499;SDS011;9379;52.134;11.576;2022-12-08T05:56:56;6.32;;;5.57;;
18499;SDS011;9379;52.134;11.576;2022-12-08T05:59:23;6.20;;;5.60;;
18499;SDS011;9379;52.134;11.576;2022-12-08T06:01:50;5.18;;;4.72;;
18499;SDS011;9379;52.134;11.576;2022-12-08T06:04:17;4.35;;;3.88;;
18499;SDS011;9379;52.134;11.576;2022-12-08T06:06:43;6.15;;;5.18;;
18499;SDS011;9379;52.134;11.576;2022-12-08T06:09:10;7.88;;;5.68;;
18499;SDS011;9379;52.134;11.576;2022-12-08T06:11:38;6.60;;;5.93;;
18499;SDS011;9379;52.134;11.576;2022-12-08T06:14:08;6.78;;;6.07;;
18499;SDS011;9379;52.134;11.576;2022-12-08T06:16:36;7.25;;;6.28;;
18499;SDS011;9379;52.134;11.576;2022-12-08T06:19:03;6.80;;;6.20;;
18499;SDS011;9379;52.134;11.576;2022-12-08T06:21:29;4.10;;;3.72;;
18499;SDS011;9379;52.134;11.576;2022-12-08T06:23:56;6.28;;;4.90;;
18499;SDS011;9379;52.134;11.576;2022-12-08T06:26:23;7.88;;;6.80;;
18499;SDS011;9379;52.134;11.576;2022-12-08T06:28:51;8.70;;;5.38;;
18499;SDS011;9379;52.134;11.576;2022-12-08T06:31:19;9.90;;;5.53;;
18499;SDS011;9379;52.134;11.576;2022-12-08T06:33:47;9.13;;;6.35;;
18499;SDS011;9379;52.134;11.576;2022-12-08T06:36:15;7.60;;;5.95;;
18499;SDS011;9379;52.134;11.576;2022-12-08T06:38:43;6.93;;;5.70;;
18499;SDS011;9379;52.134;11.576;2022-12-08T06:41:10;7.28;;;5.70;;
18499;SDS011;9379;52.134;11.576;2022-12-08T06:43:38;5.88;;;5.13;;
18499;SDS011;9379;52.134;11.576;2022-12-08T06:46:08;8.00;;;5.93;;
18499;SDS011;9379;52.134;11.576;2022-12-08T06:48:38;7.30;;;6.63;;
18499;SDS011;9379;52.134;11.576;2022-12-08T06:51:06;7.00;;;6.35;;
18499;SDS011;9379;52.134;11.576;2022-12-08T06:53:34;10.05;;;6.93;;
18499;SDS011;9379;52.134;11.576;2022-12-08T06:56:01;14.80;;;6.97;;
18499;SDS011;9379;52.134;11.576;2022-12-08T06:58:28;5.82;;;5.15;;
18499;SDS011;9379;52.134;11.576;2022-12-08T07:00:55;6.50;;;5.70;;
18499;SDS011;9379;52.134;11.576;2022-12-08T07:03:24;9.30;;;7.65;;
18499;SDS011;9379;52.134;11.576;2022-12-08T07:05:54;13.93;;;11.02;;
18499;SDS011;9379;52.134;11.576;2022-12-08T07:08:21;11.07;;;8.75;;
18499;SDS011;9379;52.134;11.576;2022-12-08T07:10:48;8.30;;;6.30;;
18499;SDS011;9379;52.134;11.576;2022-12-08T07:13:15;5.80;;;5.18;;
18499;SDS011;9379;52.134;11.576;2022-12-08T07:15:42;7.35;;;6.57;;
18499;SDS011;9379;52.134;11.576;2022-12-08T07:18:08;8.23;;;6.93;;
18499;SDS011;9379;52.134;11.576;2022-12-08T07:20:37;5.50;;;5.00;;
18499;SDS011;9379;52.134;11.576;2022-12-08T07:23:03;8.15;;;6.05;;
18499;SDS011;9379;52.134;11.576;2022-12-08T07:25:30;6.82;;;6.10;;
18499;SDS011;9379;52.134;11.576;2022-12-08T07:27:57;7.35;;;6.30;;
18499;SDS011;9379;52.134;11.576;2022-12-08T07:30:24;6.45;;;5.57;;
18499;SDS011;9379;52.134;11.576;2022-12-08T07:32:50;5.70;;;5.10;;
18499;SDS011;9379;52.134;11.576;2022-12-08T07:35:17;6.97;;;6.28;;
18499;SDS011;9379;52.134;11.576;2022-12-08T07:37:45;8.60;;;6.40;;
18499;SDS011;9379;52.134;11.576;2022-12-08T07:40:13;5.15;;;4.63;;
18499;SDS011;9379;52.134;11.576;2022-12-08T07:42:41;8.07;;;4.57;;
18499;SDS011;9379;52.134;11.576;2022-12-08T07:45:08;6.20;;;5.28;;
18499;SDS011;9379;52.134;11.576;2022-12-08T07:47:35;5.65;;;5.10;;
18499;SDS011;9379;52.134;11.576;2022-12-08T07:50:01;5.97;;;5.40;;
18499;SDS011;9379;52.134;11.576;2022-12-08T07:52:28;7.70;;;5.70;;
18499;SDS011;9379;52.134;11.576;2022-12-08T07:54:57;6.15;;;5.55;;
18499;SDS011;9379;52.134;11.576;2022-12-08T07:57:23;6.25;;;5.65;;
18499;SDS011;9379;52.134;11.576;2022-12-08T07:59:50;7.80;;;6.97;;
18499;SDS011;9379;52.134;11.576;2022-12-08T08:02:17;7.85;;;5.53;;
18499;SDS011;9379;52.134;11.576;2022-12-08T08:04:44;7.30;;;6.60;;
18499;SDS011;9379;52.134;11.576;2022-12-08T08:07:15;7.63;;;6.95;;
18499;SDS011;9379;52.134;11.576;2022-12-08T08:09:41;6.82;;;5.57;;
18499;SDS011;9379;52.134;11.576;2022-12-08T08:12:11;11.75;;;5.82;;
18499;SDS011;9379;52.134;11.576;2022-12-08T08:14:38;7.03;;;5.95;;
18499;SDS011;9379;52.134;11.576;2022-12-08T08:17:04;5.70;;;5.20;;
18499;SDS011;9379;52.134;11.576;2022-12-08T08:19:31;7.60;;;6.28;;
18499;SDS011;9379;52.134;11.576;2022-12-08T08:21:58;10.95;;;6.50;;
18499;SDS011;9379;52.134;11.576;2022-12-08T08:24:25;9.35;;;6.30;;
18499;SDS011;9379;52.134;11.576;2022-12-08T08:26:51;6.88;;;5.88;;
18499;SDS011;9379;52.134;11.576;2022-12-08T08:29:21;8.77;;;7.05;;
18499;SDS011;9379;52.134;11.576;2022-12-08T08:31:47;7.63;;;5.72;;
18499;SDS011;9379;52.134;11.576;2022-12-08T08:34:14;7.80;;;6.63;;
18499;SDS011;9379;52.134;11.576;2022-12-08T08:36:41;7.47;;;5.88;;
18499;SDS011;9379;52.134;11.576;2022-12-08T08:39:08;5.65;;;5.15;;
18499;SDS011;9379;52.134;11.576;2022-12-08T08:41:35;6.75;;;6.15;;
18499;SDS011;9379;52.134;11.576;2022-12-08T08:44:02;7.75;;;6.93;;
18499;SDS011;9379;52.134;11.576;2022-12-08T08:46:30;8.25;;;5.40;;
18499;SDS011;9379;52.134;11.576;2022-12-08T08:48:57;6.95;;;6.32;;
18499;SDS011;9379;52.134;11.576;2022-12-08T08:51:24;7.00;;;6.35;;
18499;SDS011;9379;52.134;11.576;2022-12-08T08:53:51;6.55;;;5.28;;
18499;SDS011;9379;52.134;11.576;2022-12-08T08:56:18;6.80;;;5.18;;
18499;SDS011;9379;52.134;11.576;2022-12-08T08:58:46;8.45;;;6.00;;
18499;SDS011;9379;52.134;11.576;2022-12-08T09:01:14;6.75;;;6.05;;
18499;SDS011;9379;52.134;11.576;2022-12-08T09:03:42;9.38;;;7.13;;
18499;SDS011;9379;52.134;11.576;2022-12-08T09:06:10;6.15;;;5.55;;
18499;SDS011;9379;52.134;11.576;2022-12-08T09:08:37;5.05;;;4.55;;
18499;SDS011;9379;52.134;11.576;2022-12-08T09:11:04;6.47;;;5.95;;
18499;SDS011;9379;52.134;11.576;2022-12-08T09:13:31;5.90;;;5.30;;
18499;SDS011;9379;52.134;11.576;2022-12-08T09:15:59;7.20;;;6.50;;
18499;SDS011;9379;52.134;11.576;2022-12-08T09:18:27;7.10;;;6.18;;
18499;SDS011;9379;52.134;11.576;2022-12-08T09:20:55;6.15;;;5.55;;
18499;SDS011;9379;52.134;11.576;2022-12-08T09:23:22;8.88;;;5.70;;
18499;SDS011;9379;52.134;11.576;2022-12-08T09:25:49;14.05;;;12.05;;
18499;SDS011;9379;52.134;11.576;2022-12-08T09:28:15;11.90;;;8.82;;
18499;SDS011;9379;52.134;11.576;2022-12-08T09:30:42;24.95;;;20.33;;
18499;SDS011;9379;52.134;11.576;2022-12-08T09:33:09;15.82;;;14.10;;
18499;SDS011;9379;52.134;11.576;2022-12-08T09:35:36;13.38;;;11.45;;
18499;SDS011;9379;52.134;11.576;2022-12-08T09:38:04;11.63;;;10.50;;
18499;SDS011;9379;52.134;11.576;2022-12-08T09:40:31;13.05;;;10.93;;
18499;SDS011;9379;52.134;11.576;2022-12-08T09:43:06;23.48;;;16.77;;
18499;SDS011;9379;52.134;11.576;2022-12-08T09:45:43;24.40;;;15.60;;
18499;SDS011;9379;52.134;11.576;2022-12-08T09:48:11;27.42;;;15.30;;
18499;SDS011;9379;52.134;11.576;2022-12-08T09:50:42;36.47;;;18.48;;
18499;SDS011;9379;52.134;11.576;2022-12-08T09:53:17;36.63;;;19.33;;
18499;SDS011;9379;52.134;11.576;2022-12-08T09:55:48;33.80;;;19.27;;
18499;SDS011;9379;52.134;11.576;2022-12-08T09:58:20;21.50;;;13.30;;
18499;SDS011;9379;52.134;11.576;2022-12-08T10:00:50;20.98;;;13.20;;
18499;SDS011;9379;52.134;11.576;2022-12-08T10:03:17;23.17;;;14.52;;
18499;SDS011;9379;52.134;11.576;2022-12-08T10:05:48;16.52;;;12.50;;
18499;SDS011;9379;52.134;11.576;2022-12-08T10:08:26;13.40;;;8.63;;
18499;SDS011;9379;52.134;11.576;2022-12-08T10:10:58;13.68;;;10.93;;
18499;SDS011;9379;52.134;11.576;2022-12-08T10:13:36;22.35;;;16.10;;
18499;SDS011;9379;52.134;11.576;2022-12-08T10:16:11;19.10;;;12.85;;
18499;SDS011;9379;52.134;11.576;2022-12-08T10:18:46;17.20;;;12.18;;
18499;SDS011;9379;52.134;11.576;2022-12-08T10:21:20;11.88;;;9.73;;
18499;SDS011;9379;52.134;11.576;2022-12-08T10:23:54;11.98;;;9.77;;
18499;SDS011;9379;52.134;11.576;2022-12-08T10:26:27;13.02;;;10.02;;
18499;SDS011;9379;52.134;11.576;2022-12-08T10:28:56;15.52;;;9.88;;
18499;SDS011;9379;52.134;11.576;2022-12-08T10:31:25;10.15;;;8.68;;
18499;SDS011;9379;52.134;11.576;2022-12-08T10:33:55;21.15;;;13.30;;
18499;SDS011;9379;52.134;11.576;2022-12-08T10:36:26;15.32;;;11.20;;
18499;SDS011;9379;52.134;11.576;2022-12-08T10:41:59;15.93;;;12.82;;
18499;SDS011;9379;52.134;11.576;2022-12-08T10:44:28;15.45;;;11.10;;
18499;SDS011;9379;52.134;11.576;2022-12-08T10:46:55;25.95;;;17.98;;
18499;SDS011;9379;52.134;11.576;2022-12-08T10:49:24;29.45;;;18.80;;
18499;SDS011;9379;52.134;11.576;2022-12-08T10:51:57;13.57;;;10.77;;
18499;SDS011;9379;52.134;11.576;2022-12-08T10:54:25;23.00;;;15.45;;
18499;SDS011;9379;52.134;11.576;2022-12-08T10:56:56;11.93;;;10.77;;
18499;SDS011;9379;52.134;11.576;2022-12-08T10:59:23;9.43;;;7.53;;
18499;SDS011;9379;52.134;11.576;2022-12-08T11:01:51;8.35;;;7.43;;
18499;SDS011;9379;52.134;11.576;2022-12-08T11:04:20;7.70;;;6.90;;
18499;SDS011;9379;52.134;11.576;2022-12-08T11:06:48;11.10;;;8.60;;
18499;SDS011;9379;52.134;11.576;2022-12-08T11:12:07;7.72;;;6.95;;
18499;SDS011;9379;52.134;11.576;2022-12-08T11:14:45;7.18;;;6.40;;
18499;SDS011;9379;52.134;11.576;2022-12-08T11:17:14;7.43;;;6.53;;
18499;SDS011;9379;52.134;11.576;2022-12-08T11:19:44;6.68;;;5.60;;
18499;SDS011;9379;52.134;11.576;2022-12-08T11:22:20;8.90;;;8.10;;
18499;SDS011;9379;52.134;11.576;2022-12-08T11:24:55;6.15;;;5.65;;
18499;SDS011;9379;52.134;11.576;2022-12-08T11:27:25;12.32;;;10.23;;
18499;SDS011;9379;52.134;11.576;2022-12-08T11:29:52;9.00;;;8.07;;
18499;SDS011;9379;52.134;11.576;2022-12-08T11:32:19;7.30;;;6.60;;
18499;SDS011;9379;52.134;11.576;2022-12-08T11:34:48;7.35;;;6.70;;
18499;SDS011;9379;52.134;11.576;2022-12-08T11:37:21;6.68;;;5.45;;
18499;SDS011;9379;52.134;11.576;2022-12-08T11:39:52;9.35;;;6.45;;
18499;SDS011;9379;52.134;11.576;2022-12-08T11:42:25;6.97;;;6.07;;
18499;SDS011;9379;52.134;11.576;2022-12-08T11:44:57;7.93;;;6.55;;
18499;SDS011;9379;52.134;11.576;2022-12-08T11:47:29;6.60;;;6.00;;
18499;SDS011;9379;52.134;11.576;2022-12-08T11:50:10;6.82;;;5.35;;
18499;SDS011;9379;52.134;11.576;2022-12-08T11:52:45;8.73;;;7.93;;
18499;SDS011;9379;52.134;11.576;2022-12-08T11:55:22;10.60;;;7.05;;
18499;SDS011;9379;52.134;11.576;2022-12-08T11:57:57;7.78;;;7.10;;
18499;SDS011;9379;52.134;11.576;2022-12-08T12:00:35;7.93;;;6.95;;
18499;SDS011;9379;52.134;11.576;2022-12-08T12:03:07;7.30;;;6.60;;
18499;SDS011;9379;52.134;11.576;2022-12-08T12:05:42;6.47;;;5.40;;
18499;SDS011;9379;52.134;11.576;2022-12-08T12:08:24;4.13;;;3.65;;
18499;SDS011;9379;52.134;11.576;2022-12-08T12:11:04;4.03;;;3.22;;
18499;SDS011;9379;52.134;11.576;2022-12-08T12:14:04;6.80;;;6.05;;
18499;SDS011;9379;52.134;11.576;2022-12-08T12:16:44;7.15;;;5.55;;
18499;SDS011;9379;52.134;11.576;2022-12-08T12:19:25;7.20;;;6.25;;
18499;SDS011;9379;52.134;11.576;2022-12-08T12:22:05;6.63;;;4.65;;
18499;SDS011;9379;52.134;11.576;2022-12-08T12:24:40;12.55;;;7.28;;
18499;SDS011;9379;52.134;11.576;2022-12-08T12:27:18;6.95;;;4.88;;
18499;SDS011;9379;52.134;11.576;2022-12-08T12:29:51;20.35;;;10.02;;
18499;SDS011;9379;52.134;11.576;2022-12-08T12:32:21;23.75;;;12.27;;
18499;SDS011;9379;52.134;11.576;2022-12-08T12:34:50;19.42;;;10.07;;
18499;SDS011;9379;52.134;11.576;2022-12-08T12:37:20;12.07;;;6.93;;
18499;SDS011;9379;52.134;11.576;2022-12-08T12:39:52;7.07;;;4.20;;
18499;SDS011;9379;52.134;11.576;2022-12-08T12:42:33;3.50;;;2.75;;
18499;SDS011;9379;52.134;11.576;2022-12-08T12:45:11;3.13;;;2.83;;
18499;SDS011;9379;52.134;11.576;2022-12-08T12:50:54;3.83;;;3.13;;
18499;SDS011;9379;52.134;11.576;2022-12-08T13:02:32;3.58;;;3.28;;
18499;SDS011;9379;52.134;11.576;2022-12-08T13:05:06;3.67;;;3.38;;
18499;SDS011;9379;52.134;11.576;2022-12-08T13:07:42;3.88;;;3.58;;
18499;SDS011;9379;52.134;11.576;2022-12-08T13:10:15;3.30;;;3.05;;
18499;SDS011;9379;52.134;11.576;2022-12-08T13:12:45;3.88;;;3.50;;
18499;SDS011;9379;52.134;11.576;2022-12-08T13:15:31;3.88;;;3.58;;
18499;SDS011;9379;52.134;11.576;2022-12-08T13:18:02;4.20;;;3.80;;
18499;SDS011;9379;52.134;11.576;2022-12-08T13:20:30;3.55;;;3.25;;
18499;SDS011;9379;52.134;11.576;2022-12-08T13:26:08;3.65;;;3.35;;
18499;SDS011;9379;52.134;11.576;2022-12-08T13:31:39;4.25;;;3.95;;
18499;SDS011;9379;52.134;11.576;2022-12-08T13:34:11;3.15;;;2.85;;
18499;SDS011;9379;52.134;11.576;2022-12-08T13:36:42;2.88;;;2.67;;
18499;SDS011;9379;52.134;11.576;2022-12-08T13:39:18;2.50;;;2.30;;
18499;SDS011;9379;52.134;11.576;2022-12-08T13:41:48;3.33;;;3.03;;
18499;SDS011;9379;52.134;11.576;2022-12-08T13:44:25;3.83;;;3.45;;
18499;SDS011;9379;52.134;11.576;2022-12-08T13:46:57;3.42;;;3.13;;
18499;SDS011;9379;52.134;11.576;2022-12-08T13:49:28;4.72;;;3.88;;
18499;SDS011;9379;52.134;11.576;2022-12-08T13:51:59;3.50;;;3.10;;
18499;SDS011;9379;52.134;11.576;2022-12-08T13:54:29;3.13;;;2.90;;
18499;SDS011;9379;52.134;11.576;2022-12-08T13:56:59;4.07;;;3.78;;
18499;SDS011;9379;52.134;11.576;2022-12-08T13:59:28;3.60;;;3.30;;
18499;SDS011;9379;52.134;11.576;2022-12-08T14:01:58;3.30;;;2.53;;
18499;SDS011;9379;52.134;11.576;2022-12-08T14:04:30;2.83;;;2.63;;
18499;SDS011;9379;52.134;11.576;2022-12-08T14:06:58;3.75;;;3.45;;
18499;SDS011;9379;52.134;11.576;2022-12-08T14:09:31;2.97;;;2.70;;
18499;SDS011;9379;52.134;11.576;2022-12-08T14:12:00;3.55;;;3.25;;
18499;SDS011;9379;52.134;11.576;2022-12-08T14:14:31;2.45;;;2.25;;
18499;SDS011;9379;52.134;11.576;2022-12-08T14:17:00;2.92;;;2.70;;
18499;SDS011;9379;52.134;11.576;2022-12-08T14:19:30;2.67;;;2.47;;
18499;SDS011;9379;52.134;11.576;2022-12-08T14:21:59;3.13;;;2.88;;
18499;SDS011;9379;52.134;11.576;2022-12-08T14:24:28;2.53;;;2.28;;
18499;SDS011;9379;52.134;11.576;2022-12-08T14:26:57;3.13;;;2.88;;
18499;SDS011;9379;52.134;11.576;2022-12-08T14:29:32;3.20;;;2.78;;
18499;SDS011;9379;52.134;11.576;2022-12-08T14:32:21;2.25;;;2.05;;
18499;SDS011;9379;52.134;11.576;2022-12-08T14:34:52;2.97;;;2.67;;
18499;SDS011;9379;52.134;11.576;2022-12-08T14:37:20;3.22;;;2.92;;
18499;SDS011;9379;52.134;11.576;2022-12-08T14:39:50;3.30;;;3.03;;
18499;SDS011;9379;52.134;11.576;2022-12-08T14:42:20;2.13;;;2.03;;
18499;SDS011;9379;52.134;11.576;2022-12-08T14:44:56;3.20;;;2.88;;
18499;SDS011;9379;52.134;11.576;2022-12-08T14:47:30;2.80;;;2.60;;
18499;SDS011;9379;52.134;11.576;2022-12-08T14:49:59;2.47;;;2.28;;
18499;SDS011;9379;52.134;11.576;2022-12-08T14:52:28;2.42;;;2.22;;
18499;SDS011;9379;52.134;11.576;2022-12-08T14:54:55;2.20;;;2.10;;
18499;SDS011;9379;52.134;11.576;2022-12-08T14:57:26;2.75;;;2.55;;
18499;SDS011;9379;52.134;11.576;2022-12-08T15:00:05;2.67;;;2.47;;
18499;SDS011;9379;52.134;11.576;2022-12-08T15:02:35;2.55;;;2.35;;
18499;SDS011;9379;52.134;11.576;2022-12-08T15:05:11;2.47;;;2.28;;
18499;SDS011;9379;52.134;11.576;2022-12-08T15:07:45;4.72;;;2.90;;
18499;SDS011;9379;52.134;11.576;2022-12-08T15:10:18;3.85;;;3.47;;
18499;SDS011;9379;52.134;11.576;2022-12-08T15:12:58;3.83;;;3.03;;
18499;SDS011;9379;52.134;11.576;2022-12-08T15:15:27;3.88;;;3.55;;
18499;SDS011;9379;52.134;11.576;2022-12-08T15:18:00;3.80;;;3.50;;
18499;SDS011;9379;52.134;11.576;2022-12-08T15:20:33;14.95;;;9.57;;
18499;SDS011;9379;52.134;11.576;2022-12-08T15:23:15;9.48;;;8.00;;
18499;SDS011;9379;52.134;11.576;2022-12-08T15:25:46;14.48;;;10.90;;
18499;SDS011;9379;52.134;11.576;2022-12-08T15:28:13;24.55;;;17.60;;
18499;SDS011;9379;52.134;11.576;2022-12-08T15:30:42;41.50;;;25.27;;